sensor_id;sensor_type;location;lat;lon;timestamp;P1;durP1;ratioP1;P2;durP2;ratioP2
71648;SDS011;70112;45.624;11.760;2023-06-04T00:02:04;6.70;;;6.10;;
71648;SDS011;70112;45.624;11.760;2023-06-04T00:04:30;7.20;;;6.00;;
71648;SDS011;70112;45.624;11.760;2023-06-04T00:06:55;7.30;;;5.80;;
71648;SDS011;70112;45.624;11.760;2023-06-04T00:09:21;6.80;;;6.00;;
71648;SDS011;70112;45.624;11.760;2023-06-04T00:11:46;6.80;;;6.00;;
71648;SDS011;70112;45.624;11.760;2023-06-04T00:14:13;7.30;;;6.00;;
71648;SDS011;70112;45.624;11.760;2023-06-04T00:16:40;9.30;;;7.40;;
71648;SDS011;70112;45.624;11.760;2023-06-04T00:19:06;7.90;;;7.10;;
71648;SDS011;70112;45.624;11.760;2023-06-04T00:21:31;11.80;;;8.30;;
71648;SDS011;70112;45.624;11.760;2023-06-04T00:23:57;7.50;;;6.70;;
71648;SDS011;70112;45.624;11.760;2023-06-04T00:26:24;8.60;;;7.60;;
71648;SDS011;70112;45.624;11.760;2023-06-04T00:28:49;9.00;;;7.70;;
71648;SDS011;70112;45.624;11.760;2023-06-04T00:31:15;10.60;;;8.80;;
71648;SDS011;70112;45.624;11.760;2023-06-04T00:33:41;10.10;;;9.10;;
71648;SDS011;70112;45.624;11.760;2023-06-04T00:36:07;10.60;;;8.40;;
71648;SDS011;70112;45.624;11.760;2023-06-04T00:38:33;9.50;;;8.60;;
71648;SDS011;70112;45.624;11.760;2023-06-04T00:40:58;10.50;;;9.40;;
71648;SDS011;70112;45.624;11.760;2023-06-04T00:43:24;9.90;;;8.90;;
71648;SDS011;70112;45.624;11.760;2023-06-04T00:45:53;10.80;;;9.80;;
71648;SDS011;70112;45.624;11.760;2023-06-04T00:48:19;10.30;;;9.30;;
71648;SDS011;70112;45.624;11.760;2023-06-04T00:50:46;11.90;;;10.50;;
71648;SDS011;70112;45.624;11.760;2023-06-04T00:53:13;9.90;;;9.00;;
71648;SDS011;70112;45.624;11.760;2023-06-04T00:55:39;10.40;;;9.40;;
71648;SDS011;70112;45.624;11.760;2023-06-04T00:58:04;12.10;;;10.20;;
71648;SDS011;70112;45.624;11.760;2023-06-04T01:00:31;13.30;;;10.00;;
71648;SDS011;70112;45.624;11.760;2023-06-04T01:02:57;12.50;;;9.60;;
71648;SDS011;70112;45.624;11.760;2023-06-04T01:05:57;13.50;;;9.70;;
71648;SDS011;70112;45.624;11.760;2023-06-04T01:08:27;10.80;;;9.80;;
71648;SDS011;70112;45.624;11.760;2023-06-04T01:10:53;12.40;;;10.60;;
71648;SDS011;70112;45.624;11.760;2023-06-04T01:13:20;12.30;;;10.00;;
71648;SDS011;70112;45.624;11.760;2023-06-04T01:15:45;10.90;;;9.80;;
71648;SDS011;70112;45.624;11.760;2023-06-04T01:18:14;13.60;;;9.50;;
71648;SDS011;70112;45.624;11.760;2023-06-04T01:21:02;11.50;;;9.30;;
71648;SDS011;70112;45.624;11.760;2023-06-04T01:23:51;11.00;;;8.90;;
71648;SDS011;70112;45.624;11.760;2023-06-04T01:26:29;10.00;;;8.80;;
71648;SDS011;70112;45.624;11.760;2023-06-04T01:28:56;10.20;;;9.30;;
71648;SDS011;70112;45.624;11.760;2023-06-04T01:31:23;11.50;;;9.00;;
71648;SDS011;70112;45.624;11.760;2023-06-04T01:33:55;9.60;;;8.60;;
71648;SDS011;70112;45.624;11.760;2023-06-04T01:36:23;9.90;;;9.00;;
71648;SDS011;70112;45.624;11.760;2023-06-04T01:38:48;8.90;;;8.10;;
71648;SDS011;70112;45.624;11.760;2023-06-04T01:41:14;8.60;;;7.90;;
71648;SDS011;70112;45.624;11.760;2023-06-04T01:43:39;7.40;;;6.70;;
71648;SDS011;70112;45.624;11.760;2023-06-04T01:46:05;9.60;;;6.20;;
71648;SDS011;70112;45.624;11.760;2023-06-04T01:48:30;7.10;;;6.50;;
71648;SDS011;70112;45.624;11.760;2023-06-04T01:50:57;10.20;;;6.00;;
71648;SDS011;70112;45.624;11.760;2023-06-04T01:53:23;9.80;;;6.10;;
71648;SDS011;70112;45.624;11.760;2023-06-04T01:55:48;6.30;;;5.70;;
71648;SDS011;70112;45.624;11.760;2023-06-04T01:58:16;12.40;;;5.60;;
71648;SDS011;70112;45.624;11.760;2023-06-04T02:00:43;8.50;;;5.50;;
71648;SDS011;70112;45.624;11.760;2023-06-04T02:03:09;7.00;;;5.00;;
71648;SDS011;70112;45.624;11.760;2023-06-04T02:05:36;8.50;;;4.70;;
71648;SDS011;70112;45.624;11.760;2023-06-04T02:08:02;5.50;;;4.30;;
71648;SDS011;70112;45.624;11.760;2023-06-04T02:10:30;10.70;;;4.70;;
71648;SDS011;70112;45.624;11.760;2023-06-04T02:13:00;6.60;;;4.50;;
71648;SDS011;70112;45.624;11.760;2023-06-04T02:15:31;8.10;;;5.70;;
71648;SDS011;70112;45.624;11.760;2023-06-04T02:17:59;7.20;;;6.30;;
71648;SDS011;70112;45.624;11.760;2023-06-04T02:20:38;6.90;;;6.20;;
71648;SDS011;70112;45.624;11.760;2023-06-04T02:23:03;10.80;;;7.50;;
71648;SDS011;70112;45.624;11.760;2023-06-04T02:25:28;11.80;;;8.90;;
71648;SDS011;70112;45.624;11.760;2023-06-04T02:27:54;11.40;;;8.90;;
71648;SDS011;70112;45.624;11.760;2023-06-04T02:30:19;15.10;;;9.30;;
71648;SDS011;70112;45.624;11.760;2023-06-04T02:32:45;9.60;;;8.60;;
71648;SDS011;70112;45.624;11.760;2023-06-04T02:35:11;11.10;;;8.60;;
71648;SDS011;70112;45.624;11.760;2023-06-04T02:37:36;9.00;;;8.10;;
71648;SDS011;70112;45.624;11.760;2023-06-04T02:40:02;8.80;;;7.90;;
71648;SDS011;70112;45.624;11.760;2023-06-04T02:42:27;9.50;;;8.20;;
71648;SDS011;70112;45.624;11.760;2023-06-04T02:44:53;9.40;;;8.30;;
71648;SDS011;70112;45.624;11.760;2023-06-04T02:47:18;9.20;;;8.30;;
71648;SDS011;70112;45.624;11.760;2023-06-04T02:49:44;13.10;;;9.00;;
71648;SDS011;70112;45.624;11.760;2023-06-04T02:52:11;12.10;;;8.70;;
71648;SDS011;70112;45.624;11.760;2023-06-04T02:54:37;9.80;;;8.80;;
71648;SDS011;70112;45.624;11.760;2023-06-04T02:57:02;8.90;;;8.10;;
71648;SDS011;70112;45.624;11.760;2023-06-04T02:59:28;11.10;;;8.20;;
71648;SDS011;70112;45.624;11.760;2023-06-04T03:01:54;11.80;;;7.80;;
71648;SDS011;70112;45.624;11.760;2023-06-04T03:04:19;8.80;;;7.90;;
71648;SDS011;70112;45.624;11.760;2023-06-04T03:06:45;9.60;;;7.60;;
71648;SDS011;70112;45.624;11.760;2023-06-04T03:09:12;9.50;;;7.80;;
71648;SDS011;70112;45.624;11.760;2023-06-04T03:11:39;9.10;;;8.20;;
71648;SDS011;70112;45.624;11.760;2023-06-04T03:14:04;11.60;;;7.70;;
71648;SDS011;70112;45.624;11.760;2023-06-04T03:16:30;8.00;;;7.30;;
71648;SDS011;70112;45.624;11.760;2023-06-04T03:18:56;8.40;;;7.50;;
71648;SDS011;70112;45.624;11.760;2023-06-04T03:21:22;8.80;;;7.30;;
71648;SDS011;70112;45.624;11.760;2023-06-04T03:23:47;10.70;;;8.30;;
71648;SDS011;70112;45.624;11.760;2023-06-04T03:26:13;11.60;;;6.60;;
71648;SDS011;70112;45.624;11.760;2023-06-04T03:28:39;9.60;;;7.30;;
71648;SDS011;70112;45.624;11.760;2023-06-04T03:31:05;8.40;;;6.70;;
71648;SDS011;70112;45.624;11.760;2023-06-04T03:33:31;9.60;;;6.70;;
71648;SDS011;70112;45.624;11.760;2023-06-04T03:35:56;7.80;;;6.90;;
71648;SDS011;70112;45.624;11.760;2023-06-04T03:38:25;8.70;;;7.80;;
71648;SDS011;70112;45.624;11.760;2023-06-04T03:40:51;8.50;;;7.60;;
71648;SDS011;70112;45.624;11.760;2023-06-04T03:43:18;9.80;;;6.80;;
71648;SDS011;70112;45.624;11.760;2023-06-04T03:45:44;7.90;;;6.90;;
71648;SDS011;70112;45.624;11.760;2023-06-04T03:48:10;10.20;;;7.50;;
71648;SDS011;70112;45.624;11.760;2023-06-04T03:50:36;8.50;;;6.90;;
71648;SDS011;70112;45.624;11.760;2023-06-04T03:53:01;7.80;;;7.00;;
71648;SDS011;70112;45.624;11.760;2023-06-04T03:55:30;7.60;;;6.90;;
71648;SDS011;70112;45.624;11.760;2023-06-04T03:57:57;8.30;;;7.00;;
71648;SDS011;70112;45.624;11.760;2023-06-04T04:00:23;9.80;;;7.00;;
71648;SDS011;70112;45.624;11.760;2023-06-04T04:02:49;7.70;;;6.90;;
71648;SDS011;70112;45.624;11.760;2023-06-04T04:05:15;13.00;;;6.40;;
71648;SDS011;70112;45.624;11.760;2023-06-04T04:07:41;6.50;;;5.90;;
71648;SDS011;70112;45.624;11.760;2023-06-04T04:10:07;8.60;;;6.20;;
71648;SDS011;70112;45.624;11.760;2023-06-04T04:12:32;6.60;;;4.80;;
71648;SDS011;70112;45.624;11.760;2023-06-04T04:14:58;5.00;;;4.60;;
71648;SDS011;70112;45.624;11.760;2023-06-04T04:17:23;7.60;;;4.40;;
71648;SDS011;70112;45.624;11.760;2023-06-04T04:19:49;4.80;;;4.30;;
71648;SDS011;70112;45.624;11.760;2023-06-04T04:22:15;4.60;;;4.10;;
71648;SDS011;70112;45.624;11.760;2023-06-04T04:24:43;5.80;;;4.40;;
71648;SDS011;70112;45.624;11.760;2023-06-04T04:27:09;5.80;;;4.10;;
71648;SDS011;70112;45.624;11.760;2023-06-04T04:29:36;4.70;;;4.20;;
71648;SDS011;70112;45.624;11.760;2023-06-04T04:32:02;4.60;;;4.20;;
71648;SDS011;70112;45.624;11.760;2023-06-04T04:34:37;5.50;;;4.50;;
71648;SDS011;70112;45.624;11.760;2023-06-04T04:37:04;5.40;;;4.90;;
71648;SDS011;70112;45.624;11.760;2023-06-04T04:39:34;7.50;;;4.50;;
71648;SDS011;70112;45.624;11.760;2023-06-04T04:42:01;5.80;;;5.20;;
71648;SDS011;70112;45.624;11.760;2023-06-04T04:44:27;6.00;;;4.90;;
71648;SDS011;70112;45.624;11.760;2023-06-04T04:46:53;5.70;;;5.20;;
71648;SDS011;70112;45.624;11.760;2023-06-04T04:49:18;6.10;;;4.90;;
71648;SDS011;70112;45.624;11.760;2023-06-04T04:51:44;5.00;;;4.50;;
71648;SDS011;70112;45.624;11.760;2023-06-04T04:54:09;5.80;;;5.30;;
71648;SDS011;70112;45.624;11.760;2023-06-04T04:56:35;7.90;;;4.80;;
71648;SDS011;70112;45.624;11.760;2023-06-04T04:59:01;4.70;;;4.20;;
71648;SDS011;70112;45.624;11.760;2023-06-04T05:01:27;5.30;;;4.80;;
71648;SDS011;70112;45.624;11.760;2023-06-04T05:03:52;4.90;;;4.40;;
71648;SDS011;70112;45.624;11.760;2023-06-04T05:06:18;4.50;;;4.10;;
71648;SDS011;70112;45.624;11.760;2023-06-04T05:08:43;6.80;;;4.30;;
71648;SDS011;70112;45.624;11.760;2023-06-04T05:11:09;5.10;;;4.30;;
71648;SDS011;70112;45.624;11.760;2023-06-04T05:13:35;5.10;;;4.60;;
71648;SDS011;70112;45.624;11.760;2023-06-04T05:16:01;5.60;;;4.70;;
71648;SDS011;70112;45.624;11.760;2023-06-04T05:18:32;6.10;;;4.40;;
71648;SDS011;70112;45.624;11.760;2023-06-04T05:21:05;5.20;;;4.60;;
71648;SDS011;70112;45.624;11.760;2023-06-04T05:23:32;4.70;;;4.20;;
71648;SDS011;70112;45.624;11.760;2023-06-04T05:26:02;6.20;;;4.60;;
71648;SDS011;70112;45.624;11.760;2023-06-04T05:28:28;5.20;;;4.40;;
71648;SDS011;70112;45.624;11.760;2023-06-04T05:30:54;6.00;;;5.00;;
71648;SDS011;70112;45.624;11.760;2023-06-04T05:33:28;7.80;;;5.00;;
71648;SDS011;70112;45.624;11.760;2023-06-04T05:35:55;7.10;;;5.10;;
71648;SDS011;70112;45.624;11.760;2023-06-04T05:38:23;5.90;;;5.30;;
71648;SDS011;70112;45.624;11.760;2023-06-04T05:40:51;5.40;;;4.90;;
71648;SDS011;70112;45.624;11.760;2023-06-04T05:43:23;5.90;;;5.30;;
71648;SDS011;70112;45.624;11.760;2023-06-04T05:45:49;6.30;;;4.90;;
71648;SDS011;70112;45.624;11.760;2023-06-04T05:48:15;7.20;;;5.40;;
71648;SDS011;70112;45.624;11.760;2023-06-04T05:50:40;5.90;;;5.30;;
71648;SDS011;70112;45.624;11.760;2023-06-04T05:53:06;10.30;;;5.20;;
71648;SDS011;70112;45.624;11.760;2023-06-04T05:55:31;5.80;;;5.30;;
71648;SDS011;70112;45.624;11.760;2023-06-04T05:57:57;7.00;;;5.10;;
71648;SDS011;70112;45.624;11.760;2023-06-04T06:00:23;5.60;;;5.10;;
71648;SDS011;70112;45.624;11.760;2023-06-04T06:02:52;5.70;;;5.00;;
71648;SDS011;70112;45.624;11.760;2023-06-04T06:05:19;5.80;;;5.20;;
71648;SDS011;70112;45.624;11.760;2023-06-04T06:07:45;7.90;;;4.70;;
71648;SDS011;70112;45.624;11.760;2023-06-04T06:10:12;6.80;;;5.30;;
71648;SDS011;70112;45.624;11.760;2023-06-04T06:12:39;7.80;;;5.60;;
71648;SDS011;70112;45.624;11.760;2023-06-04T06:15:05;5.70;;;5.20;;
71648;SDS011;70112;45.624;11.760;2023-06-04T06:17:31;5.50;;;5.00;;
71648;SDS011;70112;45.624;11.760;2023-06-04T06:19:58;5.30;;;4.60;;
71648;SDS011;70112;45.624;11.760;2023-06-04T06:22:24;6.10;;;5.30;;
71648;SDS011;70112;45.624;11.760;2023-06-04T06:24:49;6.60;;;5.40;;
71648;SDS011;70112;45.624;11.760;2023-06-04T06:27:15;7.80;;;5.40;;
71648;SDS011;70112;45.624;11.760;2023-06-04T06:29:41;8.10;;;5.20;;
71648;SDS011;70112;45.624;11.760;2023-06-04T06:32:08;6.00;;;5.00;;
71648;SDS011;70112;45.624;11.760;2023-06-04T06:34:34;9.50;;;5.30;;
71648;SDS011;70112;45.624;11.760;2023-06-04T06:36:59;5.50;;;4.80;;
71648;SDS011;70112;45.624;11.760;2023-06-04T06:39:25;5.60;;;4.80;;
71648;SDS011;70112;45.624;11.760;2023-06-04T06:41:50;7.70;;;4.90;;
71648;SDS011;70112;45.624;11.760;2023-06-04T06:44:16;6.10;;;5.40;;
71648;SDS011;70112;45.624;11.760;2023-06-04T06:46:41;6.60;;;5.20;;
71648;SDS011;70112;45.624;11.760;2023-06-04T06:49:07;6.00;;;5.30;;
71648;SDS011;70112;45.624;11.760;2023-06-04T06:51:33;6.00;;;4.70;;
71648;SDS011;70112;45.624;11.760;2023-06-04T06:53:58;5.20;;;4.60;;
71648;SDS011;70112;45.624;11.760;2023-06-04T06:56:23;5.70;;;5.20;;
71648;SDS011;70112;45.624;11.760;2023-06-04T06:58:50;5.10;;;4.70;;
71648;SDS011;70112;45.624;11.760;2023-06-04T07:01:16;5.50;;;5.00;;
71648;SDS011;70112;45.624;11.760;2023-06-04T07:03:41;6.40;;;5.00;;
71648;SDS011;70112;45.624;11.760;2023-06-04T07:06:07;5.00;;;4.50;;
71648;SDS011;70112;45.624;11.760;2023-06-04T07:08:32;5.40;;;4.60;;
71648;SDS011;70112;45.624;11.760;2023-06-04T07:10:59;5.30;;;4.10;;
71648;SDS011;70112;45.624;11.760;2023-06-04T07:13:25;5.50;;;4.90;;
71648;SDS011;70112;45.624;11.760;2023-06-04T07:15:51;8.60;;;5.20;;
71648;SDS011;70112;45.624;11.760;2023-06-04T07:18:16;6.70;;;4.90;;
71648;SDS011;70112;45.624;11.760;2023-06-04T07:20:42;6.50;;;4.60;;
71648;SDS011;70112;45.624;11.760;2023-06-04T07:23:07;8.90;;;5.00;;
71648;SDS011;70112;45.624;11.760;2023-06-04T07:25:33;5.50;;;4.90;;
71648;SDS011;70112;45.624;11.760;2023-06-04T07:27:59;5.10;;;4.60;;
71648;SDS011;70112;45.624;11.760;2023-06-04T07:30:25;5.20;;;4.70;;
71648;SDS011;70112;45.624;11.760;2023-06-04T07:32:51;5.60;;;4.70;;
71648;SDS011;70112;45.624;11.760;2023-06-04T07:35:16;8.20;;;5.50;;
71648;SDS011;70112;45.624;11.760;2023-06-04T07:37:42;5.60;;;4.80;;
71648;SDS011;70112;45.624;11.760;2023-06-04T07:40:13;6.00;;;4.90;;
71648;SDS011;70112;45.624;11.760;2023-06-04T07:42:40;5.10;;;4.60;;
71648;SDS011;70112;45.624;11.760;2023-06-04T07:45:07;5.10;;;4.70;;
71648;SDS011;70112;45.624;11.760;2023-06-04T07:47:35;6.80;;;5.00;;
71648;SDS011;70112;45.624;11.760;2023-06-04T07:50:01;6.50;;;5.10;;
71648;SDS011;70112;45.624;11.760;2023-06-04T07:52:26;7.10;;;5.20;;
71648;SDS011;70112;45.624;11.760;2023-06-04T07:54:52;6.50;;;5.70;;
71648;SDS011;70112;45.624;11.760;2023-06-04T07:57:17;6.00;;;5.20;;
71648;SDS011;70112;45.624;11.760;2023-06-04T07:59:43;6.40;;;5.40;;
71648;SDS011;70112;45.624;11.760;2023-06-04T08:02:08;7.40;;;5.20;;
71648;SDS011;70112;45.624;11.760;2023-06-04T08:04:34;6.40;;;5.80;;
71648;SDS011;70112;45.624;11.760;2023-06-04T08:06:59;7.20;;;6.30;;
71648;SDS011;70112;45.624;11.760;2023-06-04T08:09:25;6.50;;;5.90;;
71648;SDS011;70112;45.624;11.760;2023-06-04T08:11:51;6.40;;;5.70;;
71648;SDS011;70112;45.624;11.760;2023-06-04T08:14:16;7.10;;;6.40;;
71648;SDS011;70112;45.624;11.760;2023-06-04T08:16:42;8.00;;;5.90;;
71648;SDS011;70112;45.624;11.760;2023-06-04T08:19:07;6.90;;;6.00;;
71648;SDS011;70112;45.624;11.760;2023-06-04T08:21:34;7.70;;;6.10;;
71648;SDS011;70112;45.624;11.760;2023-06-04T08:23:59;10.10;;;5.90;;
71648;SDS011;70112;45.624;11.760;2023-06-04T08:26:25;6.30;;;5.60;;
71648;SDS011;70112;45.624;11.760;2023-06-04T08:28:52;6.70;;;5.50;;
71648;SDS011;70112;45.624;11.760;2023-06-04T08:31:18;9.90;;;6.00;;
71648;SDS011;70112;45.624;11.760;2023-06-04T08:33:46;6.60;;;5.40;;
71648;SDS011;70112;45.624;11.760;2023-06-04T08:36:13;6.60;;;5.60;;
71648;SDS011;70112;45.624;11.760;2023-06-04T08:38:38;6.00;;;5.40;;
71648;SDS011;70112;45.624;11.760;2023-06-04T08:41:16;6.30;;;5.30;;
71648;SDS011;70112;45.624;11.760;2023-06-04T08:43:52;7.00;;;5.90;;
71648;SDS011;70112;45.624;11.760;2023-06-04T08:46:21;10.50;;;6.30;;
71648;SDS011;70112;45.624;11.760;2023-06-04T08:48:47;6.30;;;5.70;;
71648;SDS011;70112;45.624;11.760;2023-06-04T08:51:13;7.60;;;6.30;;
71648;SDS011;70112;45.624;11.760;2023-06-04T08:53:41;9.40;;;6.80;;
71648;SDS011;70112;45.624;11.760;2023-06-04T08:56:07;7.80;;;6.10;;
71648;SDS011;70112;45.624;11.760;2023-06-04T08:58:35;7.20;;;6.50;;
71648;SDS011;70112;45.624;11.760;2023-06-04T09:01:01;7.80;;;6.80;;
71648;SDS011;70112;45.624;11.760;2023-06-04T09:03:28;7.70;;;7.00;;
71648;SDS011;70112;45.624;11.760;2023-06-04T09:05:58;8.30;;;6.70;;
71648;SDS011;70112;45.624;11.760;2023-06-04T09:08:24;8.00;;;6.40;;
71648;SDS011;70112;45.624;11.760;2023-06-04T09:10:53;7.50;;;6.50;;
71648;SDS011;70112;45.624;11.760;2023-06-04T09:13:22;7.40;;;6.40;;
71648;SDS011;70112;45.624;11.760;2023-06-04T09:16:04;7.40;;;6.40;;
71648;SDS011;70112;45.624;11.760;2023-06-04T09:18:33;10.40;;;6.80;;
71648;SDS011;70112;45.624;11.760;2023-06-04T09:21:03;7.50;;;6.30;;
71648;SDS011;70112;45.624;11.760;2023-06-04T09:23:40;7.90;;;6.70;;
71648;SDS011;70112;45.624;11.760;2023-06-04T09:26:09;7.50;;;6.40;;
71648;SDS011;70112;45.624;11.760;2023-06-04T09:28:45;7.90;;;6.20;;
71648;SDS011;70112;45.624;11.760;2023-06-04T09:31:16;7.60;;;5.90;;
71648;SDS011;70112;45.624;11.760;2023-06-04T09:33:45;10.90;;;6.20;;
71648;SDS011;70112;45.624;11.760;2023-06-04T09:36:13;7.50;;;5.80;;
71648;SDS011;70112;45.624;11.760;2023-06-04T09:38:38;8.70;;;6.30;;
71648;SDS011;70112;45.624;11.760;2023-06-04T09:41:10;8.70;;;6.20;;
71648;SDS011;70112;45.624;11.760;2023-06-04T09:43:36;7.30;;;6.30;;
71648;SDS011;70112;45.624;11.760;2023-06-04T09:46:09;8.50;;;6.60;;
71648;SDS011;70112;45.624;11.760;2023-06-04T09:48:35;8.60;;;5.80;;
71648;SDS011;70112;45.624;11.760;2023-06-04T09:51:10;8.40;;;6.30;;
71648;SDS011;70112;45.624;11.760;2023-06-04T09:53:38;7.30;;;6.60;;
71648;SDS011;70112;45.624;11.760;2023-06-04T09:56:05;9.20;;;6.70;;
71648;SDS011;70112;45.624;11.760;2023-06-04T09:58:32;7.40;;;6.70;;
71648;SDS011;70112;45.624;11.760;2023-06-04T10:00:59;8.00;;;7.00;;
71648;SDS011;70112;45.624;11.760;2023-06-04T10:03:34;7.70;;;6.90;;
71648;SDS011;70112;45.624;11.760;2023-06-04T10:06:02;8.60;;;7.40;;
71648;SDS011;70112;45.624;11.760;2023-06-04T10:08:31;8.00;;;7.20;;
71648;SDS011;70112;45.624;11.760;2023-06-04T10:11:01;9.10;;;7.70;;
71648;SDS011;70112;45.624;11.760;2023-06-04T10:13:35;7.60;;;6.80;;
71648;SDS011;70112;45.624;11.760;2023-06-04T10:16:10;10.60;;;7.80;;
71648;SDS011;70112;45.624;11.760;2023-06-04T10:18:36;10.10;;;7.70;;
71648;SDS011;70112;45.624;11.760;2023-06-04T10:21:03;10.00;;;7.40;;
71648;SDS011;70112;45.624;11.760;2023-06-04T10:23:29;7.40;;;6.70;;
71648;SDS011;70112;45.624;11.760;2023-06-04T10:25:54;7.40;;;6.60;;
71648;SDS011;70112;45.624;11.760;2023-06-04T10:28:22;9.70;;;7.00;;
71648;SDS011;70112;45.624;11.760;2023-06-04T10:30:49;8.00;;;6.90;;
71648;SDS011;70112;45.624;11.760;2023-06-04T10:33:20;10.00;;;7.10;;
71648;SDS011;70112;45.624;11.760;2023-06-04T10:35:50;8.50;;;7.10;;
71648;SDS011;70112;45.624;11.760;2023-06-04T10:38:20;7.50;;;6.50;;
71648;SDS011;70112;45.624;11.760;2023-06-04T10:40:48;9.20;;;7.00;;
71648;SDS011;70112;45.624;11.760;2023-06-04T10:43:14;9.20;;;7.70;;
71648;SDS011;70112;45.624;11.760;2023-06-04T10:45:42;8.90;;;6.60;;
71648;SDS011;70112;45.624;11.760;2023-06-04T10:48:09;7.60;;;6.30;;
71648;SDS011;70112;45.624;11.760;2023-06-04T10:50:52;7.70;;;6.90;;
71648;SDS011;70112;45.624;11.760;2023-06-04T10:53:19;9.80;;;7.30;;
71648;SDS011;70112;45.624;11.760;2023-06-04T10:55:47;6.90;;;6.30;;
71648;SDS011;70112;45.624;11.760;2023-06-04T10:58:13;7.80;;;6.50;;
71648;SDS011;70112;45.624;11.760;2023-06-04T11:00:44;8.80;;;6.70;;
71648;SDS011;70112;45.624;11.760;2023-06-04T11:03:15;8.70;;;7.10;;
71648;SDS011;70112;45.624;11.760;2023-06-04T11:05:42;7.50;;;6.80;;
71648;SDS011;70112;45.624;11.760;2023-06-04T11:08:11;8.50;;;7.10;;
71648;SDS011;70112;45.624;11.760;2023-06-04T11:10:44;6.90;;;6.00;;
71648;SDS011;70112;45.624;11.760;2023-06-04T11:13:10;9.10;;;6.40;;
71648;SDS011;70112;45.624;11.760;2023-06-04T11:15:46;7.90;;;6.40;;
71648;SDS011;70112;45.624;11.760;2023-06-04T11:18:18;8.00;;;6.10;;
71648;SDS011;70112;45.624;11.760;2023-06-04T11:20:46;7.70;;;6.70;;
71648;SDS011;70112;45.624;11.760;2023-06-04T11:23:13;8.20;;;6.40;;
71648;SDS011;70112;45.624;11.760;2023-06-04T11:25:40;7.70;;;6.30;;
71648;SDS011;70112;45.624;11.760;2023-06-04T11:28:07;7.00;;;6.30;;
71648;SDS011;70112;45.624;11.760;2023-06-04T11:30:33;6.40;;;5.40;;
71648;SDS011;70112;45.624;11.760;2023-06-04T11:33:05;6.30;;;5.60;;
71648;SDS011;70112;45.624;11.760;2023-06-04T11:38:04;6.50;;;5.80;;
71648;SDS011;70112;45.624;11.760;2023-06-04T11:40:30;6.70;;;6.00;;
71648;SDS011;70112;45.624;11.760;2023-06-04T11:42:55;8.10;;;6.50;;
71648;SDS011;70112;45.624;11.760;2023-06-04T11:45:22;8.10;;;6.20;;
71648;SDS011;70112;45.624;11.760;2023-06-04T11:47:57;6.70;;;6.00;;
71648;SDS011;70112;45.624;11.760;2023-06-04T11:50:27;7.00;;;6.30;;
71648;SDS011;70112;45.624;11.760;2023-06-04T11:52:53;7.10;;;6.40;;
71648;SDS011;70112;45.624;11.760;2023-06-04T11:55:19;11.50;;;6.00;;
71648;SDS011;70112;45.624;11.760;2023-06-04T11:57:49;11.10;;;7.50;;
71648;SDS011;70112;45.624;11.760;2023-06-04T12:00:16;11.00;;;7.10;;
71648;SDS011;70112;45.624;11.760;2023-06-04T12:02:55;7.60;;;5.90;;
71648;SDS011;70112;45.624;11.760;2023-06-04T12:05:27;7.80;;;6.30;;
71648;SDS011;70112;45.624;11.760;2023-06-04T12:08:06;7.70;;;6.10;;
71648;SDS011;70112;45.624;11.760;2023-06-04T12:10:42;6.90;;;6.00;;
71648;SDS011;70112;45.624;11.760;2023-06-04T12:13:09;7.60;;;6.70;;
71648;SDS011;70112;45.624;11.760;2023-06-04T12:15:35;8.60;;;6.70;;
71648;SDS011;70112;45.624;11.760;2023-06-04T12:18:00;7.70;;;6.90;;
71648;SDS011;70112;45.624;11.760;2023-06-04T12:20:39;9.00;;;6.40;;
71648;SDS011;70112;45.624;11.760;2023-06-04T12:23:06;7.00;;;6.30;;
71648;SDS011;70112;45.624;11.760;2023-06-04T12:25:33;8.00;;;6.70;;
71648;SDS011;70112;45.624;11.760;2023-06-04T12:28:00;6.40;;;5.80;;
71648;SDS011;70112;45.624;11.760;2023-06-04T12:30:37;7.60;;;6.40;;
71648;SDS011;70112;45.624;11.760;2023-06-04T12:33:04;8.00;;;6.60;;
71648;SDS011;70112;45.624;11.760;2023-06-04T12:35:29;8.00;;;6.70;;
71648;SDS011;70112;45.624;11.760;2023-06-04T12:37:55;7.80;;;6.30;;
71648;SDS011;70112;45.624;11.760;2023-06-04T12:40:20;9.30;;;6.90;;
71648;SDS011;70112;45.624;11.760;2023-06-04T12:42:45;8.90;;;7.50;;
71648;SDS011;70112;45.624;11.760;2023-06-04T12:45:15;9.60;;;7.10;;
71648;SDS011;70112;45.624;11.760;2023-06-04T12:47:40;7.60;;;6.90;;
71648;SDS011;70112;45.624;11.760;2023-06-04T12:50:07;10.40;;;6.80;;
71648;SDS011;70112;45.624;11.760;2023-06-04T12:52:33;9.10;;;6.90;;
71648;SDS011;70112;45.624;11.760;2023-06-04T12:54:58;9.10;;;7.50;;
71648;SDS011;70112;45.624;11.760;2023-06-04T12:57:24;8.90;;;7.20;;
71648;SDS011;70112;45.624;11.760;2023-06-04T12:59:49;8.10;;;7.10;;
71648;SDS011;70112;45.624;11.760;2023-06-04T13:02:15;10.10;;;7.50;;
71648;SDS011;70112;45.624;11.760;2023-06-04T13:04:40;11.00;;;7.00;;
71648;SDS011;70112;45.624;11.760;2023-06-04T13:07:08;8.50;;;7.60;;
71648;SDS011;70112;45.624;11.760;2023-06-04T13:09:33;8.60;;;6.80;;
71648;SDS011;70112;45.624;11.760;2023-06-04T13:12:00;23.00;;;7.60;;
71648;SDS011;70112;45.624;11.760;2023-06-04T13:14:25;7.90;;;7.10;;
71648;SDS011;70112;45.624;11.760;2023-06-04T13:16:51;8.20;;;7.30;;
71648;SDS011;70112;45.624;11.760;2023-06-04T13:19:16;8.50;;;7.60;;
71648;SDS011;70112;45.624;11.760;2023-06-04T13:21:42;7.90;;;6.50;;
71648;SDS011;70112;45.624;11.760;2023-06-04T13:24:09;14.00;;;7.70;;
71648;SDS011;70112;45.624;11.760;2023-06-04T13:26:35;8.00;;;6.50;;
71648;SDS011;70112;45.624;11.760;2023-06-04T13:29:01;10.80;;;7.50;;
71648;SDS011;70112;45.624;11.760;2023-06-04T13:31:26;8.10;;;6.90;;
71648;SDS011;70112;45.624;11.760;2023-06-04T13:33:52;9.80;;;8.10;;
71648;SDS011;70112;45.624;11.760;2023-06-04T13:36:17;8.60;;;7.20;;
71648;SDS011;70112;45.624;11.760;2023-06-04T13:38:43;8.60;;;6.90;;
71648;SDS011;70112;45.624;11.760;2023-06-04T13:41:09;9.40;;;7.60;;
71648;SDS011;70112;45.624;11.760;2023-06-04T13:43:34;8.60;;;6.50;;
71648;SDS011;70112;45.624;11.760;2023-06-04T13:46:00;12.10;;;7.70;;
71648;SDS011;70112;45.624;11.760;2023-06-04T13:48:25;8.70;;;7.70;;
71648;SDS011;70112;45.624;11.760;2023-06-04T13:50:51;9.00;;;7.00;;
71648;SDS011;70112;45.624;11.760;2023-06-04T13:53:17;8.40;;;7.30;;
71648;SDS011;70112;45.624;11.760;2023-06-04T13:55:43;10.00;;;7.60;;
71648;SDS011;70112;45.624;11.760;2023-06-04T13:58:08;9.10;;;7.20;;
71648;SDS011;70112;45.624;11.760;2023-06-04T14:00:33;7.70;;;6.80;;
71648;SDS011;70112;45.624;11.760;2023-06-04T14:02:59;7.70;;;6.80;;
71648;SDS011;70112;45.624;11.760;2023-06-04T14:05:25;9.60;;;7.00;;
71648;SDS011;70112;45.624;11.760;2023-06-04T14:07:52;12.50;;;7.80;;
71648;SDS011;70112;45.624;11.760;2023-06-04T14:10:18;10.60;;;7.20;;
71648;SDS011;70112;45.624;11.760;2023-06-04T14:12:43;12.20;;;6.60;;
71648;SDS011;70112;45.624;11.760;2023-06-04T14:15:10;8.80;;;6.40;;
71648;SDS011;70112;45.624;11.760;2023-06-04T14:17:38;9.90;;;8.10;;
71648;SDS011;70112;45.624;11.760;2023-06-04T14:20:05;10.60;;;7.10;;
71648;SDS011;70112;45.624;11.760;2023-06-04T14:22:35;7.70;;;6.90;;
71648;SDS011;70112;45.624;11.760;2023-06-04T14:25:05;10.20;;;7.00;;
71648;SDS011;70112;45.624;11.760;2023-06-04T14:27:32;10.30;;;7.80;;
71648;SDS011;70112;45.624;11.760;2023-06-04T14:30:00;8.70;;;7.70;;
71648;SDS011;70112;45.624;11.760;2023-06-04T14:32:26;10.10;;;7.10;;
71648;SDS011;70112;45.624;11.760;2023-06-04T14:34:52;9.20;;;7.60;;